Time;durP1;ratioP1;P1;durP2;ratioP2;P2;SDS_P1;SDS_P2;PMS_P1;PMS_P2;Temp;Humidity;BMP_temperature;BMP_pressure;BME280_temperature;BME280_humidity;BME280_pressure;Samples;Min_cycle;Max_cycle;Signal;HPM_P1;HPM_P2
2022/08/19 00:01:52;;;;;;;20.52;16.02;;;;;;;-150.27;100.00;61272.81;5274942;28;20064;-75
2022/08/19 00:04:27;;;;;;;21.20;16.27;;;;;;;-150.27;100.00;61272.81;5270953;28;20090;-76
2022/08/19 00:06:59;;;;;;;18.83;16.77;;;;;;;-150.27;100.00;61272.81;5272213;28;20392;-75
2022/08/19 00:09:31;;;;;;;26.40;17.77;;;;;;;-150.27;100.00;61272.81;5271538;28;20047;-73
2022/08/19 00:12:03;;;;;;;20.40;17.33;;;;;;;-150.27;100.00;61272.81;5271352;28;20021;-73
2022/08/19 00:14:34;;;;;;;19.87;17.77;;;;;;;-150.27;100.00;61272.81;5271908;28;20082;-75
2022/08/19 00:17:07;;;;;;;20.83;15.90;;;;;;;-150.27;100.00;61272.81;5271721;28;20033;-76
2022/08/19 00:19:39;;;;;;;18.60;16.80;;;;;;;-150.27;100.00;61272.81;5271875;28;20012;-75
2022/08/19 00:22:10;;;;;;;18.57;16.83;;;;;;;-150.27;100.00;61272.81;5271830;28;20032;-76
2022/08/19 00:24:43;;;;;;;19.17;17.40;;;;;;;-150.27;100.00;61272.81;5271796;28;20025;-76
2022/08/19 00:27:14;;;;;;;20.57;18.53;;;;;;;-150.27;100.00;61272.81;5270699;28;20048;-73
2022/08/19 00:29:46;;;;;;;20.07;18.20;;;;;;;-150.27;100.00;61272.81;5272431;28;20056;-74
2022/08/19 00:32:17;;;;;;;21.40;19.30;;;;;;;-150.27;100.00;61272.81;5271832;28;20664;-74
2022/08/19 00:34:48;;;;;;;20.83;19.03;;;;;;;-150.27;100.00;61272.81;5253850;28;20075;-74
2022/08/19 00:37:22;;;;;;;21.23;19.13;;;;;;;-150.27;100.00;61272.81;5271878;28;20027;-74
2022/08/19 00:39:55;;;;;;;21.48;19.30;;;;;;;-150.27;100.00;61272.81;5271803;28;20542;-74
2022/08/19 00:42:28;;;;;;;22.10;20.20;;;;;;;-150.27;100.00;61272.81;5270892;28;20032;-74
2022/08/19 00:44:59;;;;;;;22.60;20.47;;;;;;;-150.27;100.00;61272.81;5271941;28;20031;-74
2022/08/19 00:47:31;;;;;;;23.10;20.93;;;;;;;-150.27;100.00;61272.81;5272126;28;20024;-75
2022/08/19 00:50:03;;;;;;;24.30;22.10;;;;;;;-150.27;100.00;61272.81;5279491;28;20036;-74
2022/08/19 00:52:37;;;;;;;23.07;20.80;;;;;;;-150.27;100.00;61272.81;5259698;28;20058;-74
2022/08/19 00:55:11;;;;;;;23.67;21.57;;;;;;;-150.27;100.00;61272.81;5276554;28;20389;-75
2022/08/19 00:57:47;;;;;;;23.35;21.35;;;;;;;-150.27;100.00;61272.81;5274467;28;20078;-73
2022/08/19 01:00:20;;;;;;;24.13;22.03;;;;;;;-150.27;100.00;61272.81;5257573;28;20090;-74
2022/08/19 01:02:53;;;;;;;23.63;21.43;;;;;;;-150.27;100.00;61272.81;5281074;28;20052;-73
2022/08/19 01:05:28;;;;;;;24.07;21.83;;;;;;;-150.27;100.00;61272.81;5279606;28;20057;-75
2022/08/19 01:08:03;;;;;;;23.37;21.17;;;;;;;-150.27;100.00;61272.81;5275258;28;20713;-74
2022/08/19 01:10:37;;;;;;;;;;;;;;;-150.27;100.00;61272.81;5275682;28;20024;-74
2022/08/19 01:13:09;;;;;;;21.25;19.27;;;;;;;-150.27;100.00;61272.81;5273890;28;19913;-74
2022/08/19 01:15:53;;;;;;;22.80;20.53;;;;;;;-150.27;100.00;61272.81;5256820;28;20036;-74
2022/08/19 01:18:26;;;;;;;23.80;21.42;;;;;;;-150.27;100.00;61272.81;5274880;28;20116;-75
2022/08/19 01:21:05;;;;;;;22.35;20.30;;;;;;;-150.27;100.00;61272.81;5275491;28;20538;-76
2022/08/19 01:23:42;;;;;;;23.70;21.30;;;;;;;-150.27;100.00;61272.81;5256583;28;20439;-75
2022/08/19 01:26:23;;;;;;;24.23;21.93;;;;;;;-150.27;100.00;61272.81;5274507;28;20078;-75
2022/08/19 01:28:57;;;;;;;24.17;21.97;;;;;;;-150.27;100.00;61272.81;5274239;28;20028;-75
2022/08/19 01:31:32;;;;;;;23.90;21.50;;;;;;;-150.27;100.00;61272.81;5274872;28;20028;-75
2022/08/19 01:34:04;;;;;;;24.23;21.83;;;;;;;-150.27;100.00;61272.81;5274800;28;20761;-75
2022/08/19 01:36:45;;;;;;;24.10;21.77;;;;;;;-150.27;100.00;61272.81;5274744;28;20380;-75
2022/08/19 01:39:24;;;;;;;25.20;22.90;;;;;;;-150.27;100.00;61272.81;5274650;28;20031;-75
2022/08/19 01:41:55;;;;;;;24.63;22.23;;;;;;;-150.27;100.00;61272.81;5273404;28;20032;-75
2022/08/19 01:44:27;;;;;;;24.10;21.87;;;;;;;-150.27;100.00;61272.81;5274687;28;20511;-75
2022/08/19 01:46:58;;;;;;;25.57;22.83;;;;;;;-150.27;100.00;61272.81;5256775;28;20032;-76
2022/08/19 01:49:30;;;;;;;24.17;21.87;;;;;;;-150.27;100.00;61272.81;5274070;28;20276;-75
2022/08/19 01:52:03;;;;;;;24.03;21.70;;;;;;;-150.27;100.00;61272.81;5274499;28;20190;-75
2022/08/19 01:54:34;;;;;;;24.27;22.00;;;;;;;-150.27;100.00;61272.81;5273773;28;20024;-75
2022/08/19 01:57:11;;;;;;;25.33;22.83;;;;;;;-150.27;100.00;61272.81;5273708;28;20598;-76
2022/08/19 01:59:44;;;;;;;24.63;22.33;;;;;;;-150.27;100.00;61272.81;5273221;28;20020;-75
2022/08/19 02:02:15;;;;;;;24.10;21.90;;;;;;;-150.27;100.00;61272.81;5274168;28;20020;-75
2022/08/19 02:04:46;;;;;;;24.03;21.77;;;;;;;-150.27;100.00;61272.81;5273619;28;20098;-76
2022/08/19 02:07:21;;;;;;;26.03;23.33;;;;;;;-150.27;100.00;61272.81;5274039;28;20032;-75
2022/08/19 02:09:52;;;;;;;25.30;23.00;;;;;;;-150.27;100.00;61272.81;5256488;28;20082;-76
2022/08/19 02:12:24;;;;;;;26.00;23.50;;;;;;;-150.27;100.00;61272.81;5272548;28;20025;-76
2022/08/19 02:14:55;;;;;;;26.07;23.57;;;;;;;-150.27;100.00;61272.81;5274304;28;20081;-75
2022/08/19 02:17:28;;;;;;;26.87;24.17;;;;;;;-150.27;100.00;61272.81;5273383;28;20029;-73
2022/08/19 02:20:00;;;;;;;26.03;23.57;;;;;;;-150.27;100.00;61272.81;5273828;28;20032;-73
2022/08/19 02:22:32;;;;;;;26.10;23.40;;;;;;;-150.27;100.00;61272.81;5273490;28;20041;-74
2022/08/19 02:25:05;;;;;;;26.37;23.63;;;;;;;-150.27;100.00;61272.81;5274065;28;20524;-74
2022/08/19 02:27:37;;;;;;;27.10;24.37;;;;;;;-150.27;100.00;61272.81;5272949;28;20032;-74
2022/08/19 02:30:12;;;;;;;25.70;23.13;;;;;;;-150.27;100.00;61272.81;5273796;28;20024;-74
2022/08/19 02:32:44;;;;;;;27.37;24.40;;;;;;;-150.27;100.00;61272.81;5255448;28;20028;-74
2022/08/19 02:35:15;;;;;;;28.40;25.47;;;;;;;-150.27;100.00;61272.81;5273109;28;20024;-74
2022/08/19 02:40:37;;;;;;;26.30;23.77;;;;;;;-150.27;100.00;61272.81;5272870;28;20044;-74
2022/08/19 02:43:08;;;;;;;26.30;23.67;;;;;;;-150.27;100.00;61272.81;5272547;28;20661;-73
2022/08/19 02:45:40;;;;;;;27.20;24.40;;;;;;;-150.27;100.00;61272.81;5273059;28;20081;-74
2022/08/19 02:48:11;;;;;;;26.57;23.87;;;;;;;-150.27;100.00;61272.81;5273400;28;20048;-74
2022/08/19 02:50:43;;;;;;;26.23;23.77;;;;;;;-150.27;100.00;61272.81;5273189;28;20021;-73
2022/08/19 02:53:14;;;;;;;32.17;23.97;;;;;;;-150.27;100.00;61272.81;5272896;28;20496;-73
2022/08/19 02:55:47;;;;;;;28.07;25.30;;;;;;;-150.27;100.00;61272.81;5272874;28;20031;-74
2022/08/19 02:58:21;;;;;;;28.37;25.40;;;;;;;-150.27;100.00;61272.81;5272155;28;20025;-75
2022/08/19 03:00:54;;;;;;;26.60;24.02;;;;;;;-150.27;100.00;61272.81;5272524;28;20062;-75
2022/08/19 03:03:26;;;;;;;26.70;23.67;;;;;;;-150.27;100.00;61272.81;5272494;28;20237;-75
2022/08/19 03:06:10;;;;;;;29.33;25.50;;;;;;;-150.27;100.00;61272.81;5273235;28;20035;-75
2022/08/19 03:08:44;;;;;;;27.17;24.27;;;;;;;-150.27;100.00;61272.81;5272840;28;20040;-75
2022/08/19 03:11:35;;;;;;;28.55;25.55;;;;;;;-150.27;100.00;61272.81;5252937;28;20033;-75
2022/08/19 03:14:09;;;;;;;28.50;25.70;;;;;;;-150.27;100.00;61272.81;5273198;28;20044;-75
2022/08/19 03:16:46;;;;;;;30.67;27.47;;;;;;;-150.27;100.00;61272.81;5272653;28;20028;-75
2022/08/19 03:19:19;;;;;;;29.13;26.27;;;;;;;-150.27;100.00;61272.81;5272632;28;20104;-75
2022/08/19 03:21:51;;;;;;;29.97;26.87;;;;;;;-150.27;100.00;61272.81;5272580;28;20040;-75
2022/08/19 03:24:23;;;;;;;28.00;25.40;;;;;;;-150.27;100.00;61272.81;5272758;28;20036;-75
2022/08/19 03:26:58;;;;;;;30.43;26.53;;;;;;;-150.27;100.00;61272.81;5254955;28;20040;-74
2022/08/19 03:29:31;;;;;;;30.17;27.23;;;;;;;-150.27;100.00;61272.81;5276430;28;20024;-75
2022/08/19 03:32:04;;;;;;;30.17;27.07;;;;;;;-150.27;100.00;61272.81;5254914;28;20560;-74
2022/08/19 03:34:37;;;;;;;32.53;29.17;;;;;;;-150.27;100.00;61272.81;5273270;28;20036;-75
2022/08/19 03:37:14;;;;;;;35.53;31.77;;;;;;;-150.27;100.00;61272.81;5273530;28;20032;-75
2022/08/19 03:39:45;;;;;;;34.97;31.47;;;;;;;-150.27;100.00;61272.81;5273644;28;20028;-75
2022/08/19 03:42:16;;;;;;;34.17;30.90;;;;;;;-150.27;100.00;61272.81;5272188;28;20038;-75
2022/08/19 03:44:48;;;;;;;32.43;29.40;;;;;;;-150.27;100.00;61272.81;5272712;28;20059;-75
2022/08/19 03:47:19;;;;;;;33.87;30.50;;;;;;;-150.27;100.00;61272.81;5269735;28;20036;-74
2022/08/19 03:49:51;;;;;;;34.70;31.10;;;;;;;-150.27;100.00;61272.81;5272715;28;20098;-74
2022/08/19 03:52:22;;;;;;;33.03;29.90;;;;;;;-150.27;100.00;61272.81;5253513;28;20044;-75
2022/08/19 03:54:53;;;;;;;33.70;30.40;;;;;;;-150.27;100.00;61272.81;5251956;28;20150;-76
2022/08/19 03:57:25;;;;;;;34.60;31.30;;;;;;;-150.27;100.00;61272.81;5270094;28;20040;-76
2022/08/19 03:59:56;;;;;;;37.67;34.03;;;;;;;-150.27;100.00;61272.81;5272974;28;20540;-75
2022/08/19 04:02:27;;;;;;;38.40;34.67;;;;;;;-150.27;100.00;61272.81;5252145;28;20440;-75
2022/08/19 04:04:59;;;;;;;36.63;32.87;;;;;;;-150.27;100.00;61272.81;5251897;28;20041;-75
2022/08/19 04:07:30;;;;;;;36.33;32.83;;;;;;;-150.27;100.00;61272.81;5267965;28;20505;-75
2022/08/19 04:10:03;;;;;;;37.50;33.63;;;;;;;-150.27;100.00;61272.81;5272689;28;20040;-75
2022/08/19 04:12:34;;;;;;;36.70;33.20;;;;;;;-150.27;100.00;61272.81;5260520;28;20029;-75
2022/08/19 04:15:08;;;;;;;37.97;34.20;;;;;;;-150.27;100.00;61272.81;5263704;28;20496;-75
2022/08/19 04:17:40;;;;;;;39.15;35.28;;;;;;;-150.27;100.00;61272.81;5272113;28;20044;-75
2022/08/19 04:20:11;;;;;;;39.80;35.53;;;;;;;-150.27;100.00;61272.81;5253910;28;20016;-75
2022/08/19 04:22:43;;;;;;;40.30;35.70;;;;;;;-150.27;100.00;61272.81;5254775;28;20546;-75
2022/08/19 04:25:14;;;;;;;39.43;35.23;;;;;;;-150.27;100.00;61272.81;5275537;28;20047;-74
2022/08/19 04:27:46;;;;;;;38.93;35.07;;;;;;;-150.27;100.00;61272.81;5275281;28;20032;-75
2022/08/19 04:30:17;;;;;;;41.80;37.70;;;;;;;-150.27;100.00;61272.81;5275681;28;20035;-75
2022/08/19 04:32:50;;;;;;;41.13;36.93;;;;;;;-150.27;100.00;61272.81;5276378;28;20107;-75
2022/08/19 04:35:22;;;;;;;43.30;38.90;;;;;;;-150.27;100.00;61272.81;5276088;28;20024;-75
2022/08/19 04:37:53;;;;;;;43.77;39.07;;;;;;;-150.27;100.00;61272.81;5275978;28;20028;-76
2022/08/19 04:43:15;;;;;;;42.60;38.20;;;;;;;-150.27;100.00;61272.81;5274852;28;20048;-74
2022/08/19 04:45:47;;;;;;;42.03;37.63;;;;;;;-150.27;100.00;61272.81;5250211;28;20064;-74
2022/08/19 04:48:25;;;;;;;42.20;37.87;;;;;;;-150.27;100.00;61272.81;5264343;28;20802;-73
2022/08/19 04:50:58;;;;;;;42.97;37.90;;;;;;;-150.27;100.00;61272.81;5264440;28;20036;-73
2022/08/19 04:53:31;;;;;;;42.73;38.37;;;;;;;-150.27;100.00;61272.81;5264800;28;20115;-73
2022/08/19 04:56:12;;;;;;;43.57;38.80;;;;;;;-150.27;100.00;61272.81;5264503;28;20047;-73
2022/08/19 04:58:44;;;;;;;43.47;38.77;;;;;;;-150.27;100.00;61272.81;5266343;28;20125;-73
2022/08/19 05:01:29;;;;;;;44.37;38.13;;;;;;;-150.27;100.00;61272.81;5264092;28;20024;-76
2022/08/19 05:04:04;;;;;;;44.17;39.37;;;;;;;-150.27;100.00;61272.81;5273676;28;20455;-76
2022/08/19 05:06:35;;;;;;;45.10;40.20;;;;;;;-150.27;100.00;61272.81;5274479;28;20643;-74
2022/08/19 05:09:07;;;;;;;45.40;40.60;;;;;;;-150.27;100.00;61272.81;5254506;28;20107;-76
2022/08/19 05:11:38;;;;;;;47.57;41.27;;;;;;;-150.27;100.00;61272.81;5273687;28;20028;-76
2022/08/19 05:14:12;;;;;;;55.27;45.80;;;;;;;-150.27;100.00;61272.81;5274704;28;20107;-73
2022/08/19 05:16:43;;;;;;;49.88;44.47;;;;;;;-150.27;100.00;61272.81;5274476;28;20016;-76
2022/08/19 05:24:55;;;;;;;56.60;46.90;;;;;;;-150.27;100.00;61272.81;5274308;28;20032;-73
2022/08/19 05:27:26;;;;;;;56.57;48.10;;;;;;;-150.27;100.00;61272.81;5273479;28;20366;-74
2022/08/19 05:29:57;;;;;;;57.43;49.20;;;;;;;-150.27;100.00;61272.81;5274976;28;20043;-74
2022/08/19 05:32:28;;;;;;;54.23;46.83;;;;;;;-150.27;100.00;61272.81;5274744;28;20029;-74
2022/08/19 05:35:00;;;;;;;64.67;48.43;;;;;;;-150.27;100.00;61272.81;5273593;28;20031;-74
2022/08/19 05:37:33;;;;;;;63.07;50.77;;;;;;;-150.27;100.00;61272.81;5274837;28;20177;-74
2022/08/19 05:40:04;;;;;;;61.70;51.17;;;;;;;-150.27;100.00;61272.81;5274537;28;20504;-74
2022/08/19 05:42:37;;;;;;;62.53;50.93;;;;;;;-150.27;100.00;61272.81;5273217;28;20060;-73
2022/08/19 05:45:09;;;;;;;63.07;51.93;;;;;;;-150.27;100.00;61272.81;5274565;28;20024;-73
2022/08/19 05:47:40;;;;;;;61.00;52.93;;;;;;;-150.27;100.00;61272.81;5274572;28;20664;-73
2022/08/19 05:50:11;;;;;;;62.80;51.13;;;;;;;-150.27;100.00;61272.81;5274713;28;20025;-73
2022/08/19 05:52:43;;;;;;;61.03;50.83;;;;;;;-150.27;100.00;61272.81;5256072;28;20077;-73
2022/08/19 05:55:14;;;;;;;57.73;50.03;;;;;;;-150.27;100.00;61272.81;5274098;28;20062;-73
2022/08/19 05:57:46;;;;;;;63.37;49.40;;;;;;;-150.27;100.00;61272.81;5273527;28;20465;-72
2022/08/19 06:00:17;;;;;;;58.97;49.87;;;;;;;-150.27;100.00;61272.81;5274845;28;20030;-77
2022/08/19 06:02:48;;;;;;;54.90;48.40;;;;;;;-150.27;100.00;61272.81;5273955;28;20335;-78
2022/08/19 06:05:20;;;;;;;58.07;46.20;;;;;;;-150.27;100.00;61272.81;5273583;28;20086;-79
2022/08/19 06:07:51;;;;;;;60.43;47.83;;;;;;;-150.27;100.00;61272.81;5256273;28;20028;-79
2022/08/19 06:10:23;;;;;;;59.03;47.90;;;;;;;-150.27;100.00;61272.81;5273585;28;20390;-78
2022/08/19 06:12:55;;;;;;;53.17;46.03;;;;;;;-150.27;100.00;61272.81;5273239;28;20024;-79
2022/08/19 06:15:27;;;;;;;57.23;47.30;;;;;;;-150.27;100.00;61272.81;5273581;28;20036;-78
2022/08/19 06:17:58;;;;;;;55.27;46.13;;;;;;;-150.27;100.00;61272.81;5273929;28;20064;-79
2022/08/19 06:20:30;;;;;;;58.10;46.03;;;;;;;-150.27;100.00;61272.81;5272936;28;20469;-78
2022/08/19 06:23:01;;;;;;;53.93;44.67;;;;;;;-150.27;100.00;61272.81;5273604;28;20056;-78
2022/08/19 06:25:32;;;;;;;51.47;43.97;;;;;;;-150.27;100.00;61272.81;5272780;28;20025;-78
2022/08/19 06:28:03;;;;;;;53.17;43.03;;;;;;;-150.27;100.00;61272.81;5273093;28;20429;-78
2022/08/19 06:30:36;;;;;;;56.93;44.03;;;;;;;-150.27;100.00;61272.81;5275644;28;20036;-78
2022/08/19 06:33:08;;;;;;;47.80;41.87;;;;;;;-150.27;100.00;61272.81;5273580;28;20025;-76
2022/08/19 06:35:40;;;;;;;51.77;42.40;;;;;;;-150.27;100.00;61272.81;5273169;28;20021;-70
2022/08/19 06:38:12;;;;;;;54.43;44.77;;;;;;;-150.27;100.00;61272.81;5272832;28;20111;-71
2022/08/19 06:40:43;;;;;;;54.67;43.27;;;;;;;-150.27;100.00;61272.81;5252460;28;20103;-72
2022/08/19 06:43:15;;;;;;;53.47;42.77;;;;;;;-150.27;100.00;61272.81;5271210;28;20132;-72
2022/08/19 06:45:47;;;;;;;55.17;42.23;;;;;;;-150.27;100.00;61272.81;5271367;28;20096;-72
2022/08/19 06:48:18;;;;;;;54.33;40.73;;;;;;;-150.27;100.00;61272.81;5271989;28;20028;-71
2022/08/19 06:50:51;;;;;;;49.67;41.53;;;;;;;-150.27;100.00;61272.81;5253888;28;20086;-71
2022/08/19 06:53:22;;;;;;;49.93;41.03;;;;;;;-150.27;100.00;61272.81;5272367;28;20017;-71
2022/08/19 06:55:59;;;;;;;50.47;38.97;;;;;;;-150.27;100.00;61272.81;5271275;28;20032;-71
2022/08/19 06:58:34;;;;;;;47.27;36.63;;;;;;;-150.27;100.00;61272.81;5272405;28;20028;-71
2022/08/19 07:01:06;;;;;;;48.13;37.03;;;;;;;-150.27;100.00;61272.81;5253947;28;20020;-71
2022/08/19 07:03:38;;;;;;;47.63;36.90;;;;;;;-150.27;100.00;61272.81;5271876;28;20053;-71
2022/08/19 07:06:17;;;;;;;47.03;36.90;;;;;;;-150.27;100.00;61272.81;5272414;28;20036;-71
2022/08/19 07:08:48;;;;;;;48.57;35.90;;;;;;;-150.27;100.00;61272.81;5272411;28;20078;-71
2022/08/19 07:11:20;;;;;;;42.37;34.50;;;;;;;-150.27;100.00;61272.81;5270893;28;20024;-72
2022/08/19 07:13:52;;;;;;;47.10;34.33;;;;;;;-150.27;100.00;61272.81;5272503;28;20021;-71
2022/08/19 07:16:24;;;;;;;49.13;36.37;;;;;;;-150.27;100.00;61272.81;5272044;28;20048;-71
2022/08/19 07:18:56;;;;;;;46.53;33.63;;;;;;;-150.27;100.00;61272.81;5272309;28;20052;-71
2022/08/19 07:21:28;;;;;;;43.97;33.27;;;;;;;-150.27;100.00;61272.81;5271927;28;20042;-71
2022/08/19 07:24:00;;;;;;;46.83;32.50;;;;;;;-150.27;100.00;61272.81;5271728;28;20078;-71
2022/08/19 07:26:33;;;;;;;37.50;28.67;;;;;;;-150.27;100.00;61272.81;5253037;28;20017;-72
2022/08/19 07:29:06;;;;;;;36.03;29.75;;;;;;;-150.27;100.00;61272.81;5271483;28;20035;-72
2022/08/19 07:31:37;;;;;;;39.73;29.10;;;;;;;-150.27;100.00;61272.81;5272061;28;20126;-72
2022/08/19 07:34:11;;;;;;;36.28;29.52;;;;;;;-150.27;100.00;61272.81;5272078;28;20043;-72
2022/08/19 07:36:44;;;;;;;39.22;29.20;;;;;;;-150.27;100.00;61272.81;5271714;28;20024;-72
2022/08/19 07:39:18;;;;;;;38.42;30.10;;;;;;;-150.27;100.00;61272.81;5271479;28;20587;-73
2022/08/19 07:41:50;;;;;;;39.55;32.90;;;;;;;-150.27;100.00;61272.81;5271418;28;20111;-72
2022/08/19 07:44:22;;;;;;;39.70;33.38;;;;;;;-150.27;100.00;61272.81;5271678;28;20082;-72
2022/08/19 07:46:56;;;;;;;46.05;37.30;;;;;;;-150.27;100.00;61272.81;5272625;28;20052;-71
2022/08/19 07:49:27;;;;;;;42.97;35.47;;;;;;;-150.27;100.00;61272.81;5275417;28;20115;-72
2022/08/19 07:52:02;;;;;;;40.53;35.67;;;;;;;-150.27;100.00;61272.81;5272347;28;20100;-72
2022/08/19 07:54:40;;;;;;;50.67;42.80;;;;;;;-150.27;100.00;61272.81;5273687;28;20063;-72
2022/08/19 07:57:11;;;;;;;46.40;41.03;;;;;;;-150.27;100.00;61272.81;5274374;28;20035;-72
2022/08/19 07:59:43;;;;;;;51.80;42.25;;;;;;;-150.27;100.00;61272.81;5271495;28;20016;-72
2022/08/19 08:02:14;;;;;;;50.67;43.08;;;;;;;-150.27;100.00;61272.81;5270319;28;20028;-73
2022/08/19 08:10:25;;;;;;;47.63;41.17;;;;;;;-150.27;100.00;61272.81;5271286;28;20068;-72
2022/08/19 08:12:56;;;;;;;46.17;39.30;;;;;;;-150.27;100.00;61272.81;5270769;28;20056;-71
2022/08/19 08:15:27;;;;;;;45.60;40.10;;;;;;;-150.27;100.00;61272.81;5271448;28;20665;-72
2022/08/19 08:17:59;;;;;;;49.88;42.67;;;;;;;-150.27;100.00;61272.81;5267500;28;20048;-71
2022/08/19 08:20:30;;;;;;;46.58;41.53;;;;;;;-150.27;100.00;61272.81;5232739;28;20499;-71
2022/08/19 08:25:54;;;;;;;47.55;41.78;;;;;;;-150.27;100.00;61272.81;5270104;28;20135;-71
2022/08/19 08:28:29;;;;;;;47.78;42.13;;;;;;;-150.27;100.00;61272.81;5252124;28;20031;-71
2022/08/19 08:31:01;;;;;;;45.67;39.47;;;;;;;-150.27;100.00;61272.81;5269205;28;20043;-71
2022/08/19 08:33:32;;;;;;;47.35;41.10;;;;;;;-150.27;100.00;61272.81;5271077;28;20025;-71
2022/08/19 08:36:08;;;;;;;49.78;40.70;;;;;;;-150.27;100.00;61272.81;5271866;28;20021;-70
2022/08/19 08:38:41;;;;;;;46.55;41.08;;;;;;;-150.27;100.00;61272.81;5252353;28;20105;-68
2022/08/19 08:41:19;;;;;;;48.22;40.85;;;;;;;-150.27;100.00;61272.81;5240206;28;20024;-68
2022/08/19 08:43:53;;;;;;;52.47;42.70;;;;;;;-150.27;100.00;61272.81;5260613;28;20503;-68
2022/08/19 08:46:35;;;;;;;;;;;;;;;-150.27;100.00;61272.81;5260985;28;20491;-69
2022/08/19 08:49:27;;;;;;;44.97;38.38;;;;;;;-150.27;100.00;61272.81;5260782;28;19943;-72
2022/08/19 08:52:05;;;;;;;38.67;34.50;;;;;;;-150.27;100.00;61272.81;5242705;28;20047;-69
2022/08/19 08:54:44;;;;;;;38.83;32.60;;;;;;;-150.27;100.00;61272.81;5241819;28;20032;-68
2022/08/19 08:57:23;;;;;;;35.92;31.05;;;;;;;-150.27;100.00;61272.81;5259337;28;20025;-70
2022/08/19 09:00:00;;;;;;;39.42;33.22;;;;;;;-150.27;100.00;61272.81;5240647;28;20027;-68
2022/08/19 09:02:32;;;;;;;40.97;32.65;;;;;;;-150.27;100.00;61272.81;5241034;28;20139;-71
2022/08/19 09:05:03;;;;;;;40.00;32.75;;;;;;;-150.27;100.00;61272.81;5260065;28;20162;-71
2022/08/19 09:07:58;;;;;;;38.95;34.67;;;;;;;-150.27;100.00;61272.81;5259420;28;20123;-72
2022/08/19 09:10:37;;;;;;;36.90;32.08;;;;;;;-150.27;100.00;61272.81;5241619;28;20021;-71
2022/08/19 09:13:33;;;;;;;37.35;32.67;;;;;;;-150.27;100.00;61272.81;5263694;28;20108;-71
2022/08/19 09:16:12;;;;;;;35.50;31.63;;;;;;;-150.27;100.00;61272.81;5244534;28;20078;-72
2022/08/19 09:18:52;;;;;;;42.55;37.35;;;;;;;-150.27;100.00;61272.81;5263021;28;20028;-73
2022/08/19 09:21:25;;;;;;;46.90;39.35;;;;;;;-150.27;100.00;61272.81;5264016;28;20021;-72
2022/08/19 09:23:58;;;;;;;46.28;38.78;;;;;;;-150.27;100.00;61272.81;5264489;28;20028;-71
2022/08/19 09:26:32;;;;;;;35.55;31.83;;;;;;;-150.27;100.00;61272.81;5262158;28;20032;-73
2022/08/19 09:29:05;;;;;;;37.45;31.83;;;;;;;-150.27;100.00;61272.81;5263841;28;20328;-73
2022/08/19 09:31:37;;;;;;;38.72;34.17;;;;;;;-150.27;100.00;61272.81;5244116;28;20037;-72
2022/08/19 09:34:08;;;;;;;39.28;34.92;;;;;;;-150.27;100.00;61272.81;5246339;28;20024;-70
2022/08/19 09:36:40;;;;;;;40.47;33.35;;;;;;;-150.27;100.00;61272.81;5245152;28;20039;-70
2022/08/19 09:39:11;;;;;;;38.53;34.40;;;;;;;-150.27;100.00;61272.81;5245268;28;20055;-70
2022/08/19 09:41:42;;;;;;;38.63;32.60;;;;;;;-150.27;100.00;61272.81;5260960;28;20116;-66
2022/08/19 09:44:14;;;;;;;40.80;32.95;;;;;;;-150.27;100.00;61272.81;5261303;28;20695;-72
2022/08/19 09:46:48;;;;;;;39.75;32.88;;;;;;;-150.27;100.00;61272.81;5261616;28;20056;-71
2022/08/19 09:49:21;;;;;;;39.75;32.85;;;;;;;-150.27;100.00;61272.81;5262065;28;20036;-71
2022/08/19 09:51:55;;;;;;;43.10;33.85;;;;;;;-150.27;100.00;61272.81;5262925;28;20041;-71
2022/08/19 09:54:27;;;;;;;40.85;33.90;;;;;;;-150.27;100.00;61272.81;5242972;28;20450;-73
2022/08/19 09:57:02;;;;;;;35.85;31.75;;;;;;;-150.27;100.00;61272.81;5242510;28;20036;-72
2022/08/19 09:59:33;;;;;;;34.15;30.60;;;;;;;-150.27;100.00;61272.81;5261687;28;20398;-72
2022/08/19 10:02:05;;;;;;;37.08;31.48;;;;;;;-150.27;100.00;61272.81;5261999;28;20021;-72
2022/08/19 10:07:29;;;;;;;36.72;32.22;;;;;;;-150.27;100.00;61272.81;5262005;28;20045;-72
2022/08/19 10:10:00;;;;;;;42.20;32.28;;;;;;;-150.27;100.00;61272.81;5261034;28;20119;-72
2022/08/19 10:12:33;;;;;;;36.10;31.50;;;;;;;-150.27;100.00;61272.81;5260226;28;20028;-72
2022/08/19 10:15:05;;;;;;;40.40;30.95;;;;;;;-150.27;100.00;61272.81;5261386;28;20514;-72
2022/08/19 10:17:37;;;;;;;42.15;31.98;;;;;;;-150.27;100.00;61272.81;5262091;28;20053;-72
2022/08/19 10:20:09;;;;;;;35.40;29.08;;;;;;;-150.27;100.00;61272.81;5261816;28;20644;-72
2022/08/19 10:22:41;;;;;;;34.30;29.00;;;;;;;-150.27;100.00;61272.81;5245914;28;20024;-72
2022/08/19 10:25:14;;;;;;;39.88;31.95;;;;;;;-150.27;100.00;61272.81;5241446;28;20033;-72
2022/08/19 10:27:45;;;;;;;39.43;31.10;;;;;;;-150.27;100.00;61272.81;5260032;28;20035;-72
2022/08/19 10:30:17;;;;;;;36.80;29.73;;;;;;;-150.27;100.00;61272.81;5261298;28;20479;-72
2022/08/19 10:32:48;;;;;;;39.38;29.63;;;;;;;-150.27;100.00;61272.81;5261689;28;20020;-72
2022/08/19 10:35:20;;;;;;;40.40;30.58;;;;;;;-150.27;100.00;61272.81;5261442;28;20094;-76
2022/08/19 10:37:51;;;;;;;46.20;31.40;;;;;;;-150.27;100.00;61272.81;5261211;28;20073;-72
2022/08/19 10:40:22;;;;;;;42.15;30.48;;;;;;;-150.27;100.00;61272.81;5243321;28;20032;-73
2022/08/19 10:42:55;;;;;;;36.28;29.45;;;;;;;-150.27;100.00;61272.81;5266120;28;20476;-72
2022/08/19 10:45:26;;;;;;;39.97;31.02;;;;;;;-150.27;100.00;61272.81;5272188;28;20029;-72
2022/08/19 10:47:58;;;;;;;30.15;26.95;;;;;;;-150.27;100.00;61272.81;5272953;28;20020;-79
2022/08/19 10:53:25;;;;;;;37.38;30.23;;;;;;;-150.27;100.00;61272.81;5242717;28;20070;-75
2022/08/19 10:58:46;;;;;;;31.77;27.55;;;;;;;-150.27;100.00;61272.81;5273266;28;20041;-79
2022/08/19 11:01:17;;;;;;;37.60;28.48;;;;;;;-150.27;100.00;61272.81;5258089;28;20025;-74
2022/08/19 11:03:49;;;;;;;35.25;27.10;;;;;;;-150.27;100.00;61272.81;5253850;28;20053;-76
2022/08/19 11:06:20;;;;;;;37.33;28.63;;;;;;;-150.27;100.00;61272.81;5272233;28;20032;-76
2022/08/19 11:08:54;;;;;;;33.78;28.02;;;;;;;-150.27;100.00;61272.81;5272564;28;20028;-74
2022/08/19 11:11:26;;;;;;;34.33;28.25;;;;;;;-150.27;100.00;61272.81;5253590;28;20024;-79
2022/08/19 11:13:57;;;;;;;36.28;30.95;;;;;;;-150.27;100.00;61272.81;5254593;28;20035;-78
2022/08/19 11:16:31;;;;;;;36.45;32.00;;;;;;;-150.27;100.00;61272.81;5272042;28;20111;-79
2022/08/19 11:19:02;;;;;;;39.17;32.65;;;;;;;-150.27;100.00;61272.81;5272344;28;20016;-75
2022/08/19 11:21:39;;;;;;;41.17;35.95;;;;;;;-150.27;100.00;61272.81;5271815;28;20028;-77
2022/08/19 11:24:17;;;;;;;38.70;34.22;;;;;;;-150.27;100.00;61272.81;5272609;28;20029;-76
2022/08/19 11:26:50;;;;;;;37.97;33.88;;;;;;;-150.27;100.00;61272.81;5252981;28;20029;-77
2022/08/19 11:29:25;;;;;;;38.85;32.40;;;;;;;-150.27;100.00;61272.81;5273088;28;20484;-77
2022/08/19 11:31:57;;;;;;;37.72;33.72;;;;;;;-150.27;100.00;61272.81;5272332;28;20611;-80
2022/08/19 11:34:29;;;;;;;38.03;32.40;;;;;;;-150.27;100.00;61272.81;5270322;28;20043;-77
2022/08/19 11:37:02;;;;;;;35.58;31.80;;;;;;;-150.27;100.00;61272.81;5275478;28;20025;-76
2022/08/19 11:39:35;;;;;;;;;;;;;;;-150.27;100.00;61272.81;5272431;28;20101;-78
2022/08/19 11:42:55;;;;;;;34.35;28.30;;;;;;;-150.27;100.00;61272.81;5270574;28;20007;-79
2022/08/19 11:44:58;;;;;;;30.05;26.95;;;;;;;-150.27;100.00;61272.81;5267958;28;20123;-75
2022/08/19 11:47:30;;;;;;;32.33;25.65;;;;;;;-150.27;100.00;61272.81;5270120;28;20744;-81
2022/08/19 11:50:01;;;;;;;29.95;26.95;;;;;;;-150.27;100.00;61272.81;5272469;28;20461;-82